createdAt,value
2022-09-18T07:59:39.483Z,3.67
2022-09-18T08:14:44.323Z,4.38
2022-09-18T08:30:06.798Z,4.97
2022-09-18T08:45:32.179Z,3.17
2022-09-18T09:00:41.750Z,2.58
2022-09-18T09:15:57.863Z,4.57
2022-09-18T09:31:05.885Z,20.30
2022-09-18T09:46:54.693Z,16.70
2022-09-18T10:02:10.696Z,15.33
2022-09-18T10:17:18.038Z,13.73
2022-09-18T10:32:37.450Z,16.10
2022-09-18T10:48:05.191Z,14.30
2022-09-18T11:03:22.566Z,14.00
2022-09-18T11:18:30.120Z,15.57
2022-09-18T11:33:41.039Z,13.15
2022-09-18T12:03:58.888Z,9.65
2022-09-18T12:19:05.147Z,8.07
2022-09-18T12:34:19.455Z,8.30
2022-09-18T12:49:46.030Z,8.02
2022-09-18T13:04:55.000Z,7.72
2022-09-18T13:20:06.557Z,5.40
2022-09-18T13:35:23.408Z,6.93
2022-09-18T13:50:28.907Z,6.63
2022-09-18T14:05:35.241Z,6.10
2022-09-18T14:20:39.935Z,5.07
2022-09-18T14:35:52.261Z,6.88
2022-09-18T14:51:02.721Z,4.45
2022-09-18T15:06:17.631Z,3.95
2022-09-18T15:21:32.824Z,5.75
2022-09-18T15:36:40.910Z,5.22
2022-09-18T15:51:45.466Z,4.18
2022-09-18T16:06:56.827Z,4.10
2022-09-18T16:22:10.994Z,3.28
2022-09-18T16:37:17.397Z,4.53
2022-09-18T16:52:21.946Z,3.88
2022-09-18T17:07:26.540Z,3.15
2022-09-18T17:22:31.951Z,3.22
2022-09-18T17:37:36.851Z,3.20
2022-09-18T17:52:41.687Z,3.00
2022-09-18T18:07:46.282Z,2.60
